Main page
METAR-TAF:

METAR-TAF

Airports :

Tel Aviv / Ben Gurion, Israel

Ben Gurion Airport

latitude: 32-00N, longitude: 034-54E, elevation: 40 m

Current weather observation

The report was made 34 minutes ago, at 07:20 UTC
Wind 1 kt from variable directions
Temperature 19°C
Humidity 46%
Pressure 1021 hPa
Visibility 10 km or more
no clouds below 1500 m and no cumulonimbus

METAR: LLBG 170720Z VRB01KT CAVOK 19/07 Q1021 NOSIG

Time: 09:54 (07:54 UTC)

Forecast

The report was made 2 hours and 36 minutes ago, at 05:18 UTC
Forecast valid from 17 at 06 UTC to 18 at 06 UTC
Wind 3 kt from variable directions
Visibility 10 km or more
no clouds below 1500 m and no cumulonimbus
Temporary
from 17 at 08 UTC to 17 at 18 UTC
Wind 7 kt from the North/Northwest
Becoming
from 17 at 18 UTC to 17 at 21 UTC
Wind 5 kt from the Southeast

TAF: LLBG 170518Z 1706/1806 VRB03KT CAVOK TEMPO 1708/1718 33007KT BECMG 1718/1721 14005KT TX24/1712Z TN13/1804Z

Weather observations and forecasts of more than 4000 airports (METAR and TAF reports).

The available stations are represented by yellow and red dots on the map.

Hover mouse over dot to see the name of the station.

Then click to see weather observations and forecasts.

To change the map : click on the green buttons with a black cross to zoom in, on the green button with a dash to zoom out, or on the green arrows for adjacent maps.


METAR-TAF: